sensor_id;sensor_type;location;lat;lon;timestamp;temperature;humidity
49731;DHT22;35622;52.008;5.426;2024-03-23T00:56:12;12.50;92.00
49731;DHT22;35622;52.008;5.426;2024-03-23T00:58:38;12.50;92.00
49731;DHT22;35622;52.008;5.426;2024-03-23T01:01:04;12.50;92.00
49731;DHT22;35622;52.008;5.426;2024-03-23T01:03:30;12.50;92.10
49731;DHT22;35622;52.008;5.426;2024-03-23T01:06:02;12.50;92.50
49731;DHT22;35622;52.008;5.426;2024-03-23T01:08:29;12.60;92.10
49731;DHT22;35622;52.008;5.426;2024-03-23T01:10:58;12.60;92.00
49731;DHT22;35622;52.008;5.426;2024-03-23T01:13:24;12.60;92.00
49731;DHT22;35622;52.008;5.426;2024-03-23T01:15:53;12.60;92.00
49731;DHT22;35622;52.008;5.426;2024-03-23T01:18:20;12.50;92.00
49731;DHT22;35622;52.008;5.426;2024-03-23T01:20:46;12.50;92.10
49731;DHT22;35622;52.008;5.426;2024-03-23T01:23:12;12.50;92.20
49731;DHT22;35622;52.008;5.426;2024-03-23T01:25:38;12.60;92.10
49731;DHT22;35622;52.008;5.426;2024-03-23T01:28:04;12.60;92.00
49731;DHT22;35622;52.008;5.426;2024-03-23T01:30:29;12.70;91.80
49731;DHT22;35622;52.008;5.426;2024-03-23T01:32:56;12.60;92.00
49731;DHT22;35622;52.008;5.426;2024-03-23T01:35:21;12.60;91.70
49731;DHT22;35622;52.008;5.426;2024-03-23T01:37:47;12.60;91.80
49731;DHT22;35622;52.008;5.426;2024-03-23T01:40:13;12.60;91.70
49731;DHT22;35622;52.008;5.426;2024-03-23T01:42:41;12.70;91.90
49731;DHT22;35622;52.008;5.426;2024-03-23T01:45:08;12.60;91.90
49731;DHT22;35622;52.008;5.426;2024-03-23T01:47:34;12.70;91.80
49731;DHT22;35622;52.008;5.426;2024-03-23T01:50:00;12.70;91.70
49731;DHT22;35622;52.008;5.426;2024-03-23T01:52:26;12.60;91.60
49731;DHT22;35622;52.008;5.426;2024-03-23T01:54:55;12.60;91.80
49731;DHT22;35622;52.008;5.426;2024-03-23T01:57:21;12.60;91.70
49731;DHT22;35622;52.008;5.426;2024-03-23T01:59:47;12.60;91.60
49731;DHT22;35622;52.008;5.426;2024-03-23T02:02:13;12.60;91.50
49731;DHT22;35622;52.008;5.426;2024-03-23T02:04:39;12.50;91.40
49731;DHT22;35622;52.008;5.426;2024-03-23T02:07:06;12.50;91.30
49731;DHT22;35622;52.008;5.426;2024-03-23T02:09:32;12.50;91.20
49731;DHT22;35622;52.008;5.426;2024-03-23T02:11:58;12.50;90.80
49731;DHT22;35622;52.008;5.426;2024-03-23T02:14:24;12.40;90.60
49731;DHT22;35622;52.008;5.426;2024-03-23T02:16:49;12.40;90.50
49731;DHT22;35622;52.008;5.426;2024-03-23T02:19:15;12.30;90.50
49731;DHT22;35622;52.008;5.426;2024-03-23T02:21:40;12.30;90.40
49731;DHT22;35622;52.008;5.426;2024-03-23T02:24:06;12.20;90.30
49731;DHT22;35622;52.008;5.426;2024-03-23T02:26:32;12.20;90.20
49731;DHT22;35622;52.008;5.426;2024-03-23T02:28:57;12.10;90.20
49731;DHT22;35622;52.008;5.426;2024-03-23T02:31:23;12.00;90.30
49731;DHT22;35622;52.008;5.426;2024-03-23T02:33:48;12.00;90.20
49731;DHT22;35622;52.008;5.426;2024-03-23T02:36:14;11.90;90.00
49731;DHT22;35622;52.008;5.426;2024-03-23T02:38:39;11.80;90.20
49731;DHT22;35622;52.008;5.426;2024-03-23T02:41:05;11.80;90.10
49731;DHT22;35622;52.008;5.426;2024-03-23T02:43:31;11.70;90.20
49731;DHT22;35622;52.008;5.426;2024-03-23T02:45:57;11.70;90.70
49731;DHT22;35622;52.008;5.426;2024-03-23T02:48:23;11.70;90.00
49731;DHT22;35622;52.008;5.426;2024-03-23T02:50:49;11.50;90.00
49731;DHT22;35622;52.008;5.426;2024-03-23T02:53:15;11.50;89.80
49731;DHT22;35622;52.008;5.426;2024-03-23T02:55:40;11.40;90.00
49731;DHT22;35622;52.008;5.426;2024-03-23T02:58:06;11.30;90.10
49731;DHT22;35622;52.008;5.426;2024-03-23T03:00:31;11.20;90.20
49731;DHT22;35622;52.008;5.426;2024-03-23T03:02:57;11.10;90.20
49731;DHT22;35622;52.008;5.426;2024-03-23T03:05:22;11.10;90.10
49731;DHT22;35622;52.008;5.426;2024-03-23T03:07:48;11.00;90.30
49731;DHT22;35622;52.008;5.426;2024-03-23T03:10:14;11.00;90.40
49731;DHT22;35622;52.008;5.426;2024-03-23T03:12:39;11.00;90.50
49731;DHT22;35622;52.008;5.426;2024-03-23T03:15:05;11.00;90.30
49731;DHT22;35622;52.008;5.426;2024-03-23T03:17:31;10.90;90.40
49731;DHT22;35622;52.008;5.426;2024-03-23T03:19:57;10.80;90.50
49731;DHT22;35622;52.008;5.426;2024-03-23T03:22:22;10.90;90.50
49731;DHT22;35622;52.008;5.426;2024-03-23T03:24:48;10.90;90.60
49731;DHT22;35622;52.008;5.426;2024-03-23T03:27:14;10.90;90.50
49731;DHT22;35622;52.008;5.426;2024-03-23T03:29:40;10.90;90.50
49731;DHT22;35622;52.008;5.426;2024-03-23T03:32:06;10.90;90.50
49731;DHT22;35622;52.008;5.426;2024-03-23T03:34:31;10.90;90.40
49731;DHT22;35622;52.008;5.426;2024-03-23T03:36:57;10.80;90.20
49731;DHT22;35622;52.008;5.426;2024-03-23T03:39:23;10.90;90.10
49731;DHT22;35622;52.008;5.426;2024-03-23T03:41:49;10.80;89.70
49731;DHT22;35622;52.008;5.426;2024-03-23T03:44:14;10.70;90.00
49731;DHT22;35622;52.008;5.426;2024-03-23T03:46:40;10.70;90.30
49731;DHT22;35622;52.008;5.426;2024-03-23T03:49:06;10.70;90.00
49731;DHT22;35622;52.008;5.426;2024-03-23T03:51:31;10.70;90.30
49731;DHT22;35622;52.008;5.426;2024-03-23T03:53:57;10.60;88.90
49731;DHT22;35622;52.008;5.426;2024-03-23T03:56:22;10.50;88.50
49731;DHT22;35622;52.008;5.426;2024-03-23T03:58:48;10.40;88.60
49731;DHT22;35622;52.008;5.426;2024-03-23T04:01:14;10.30;88.70
49731;DHT22;35622;52.008;5.426;2024-03-23T04:03:39;10.30;88.90
49731;DHT22;35622;52.008;5.426;2024-03-23T04:06:09;10.20;88.30
49731;DHT22;35622;52.008;5.426;2024-03-23T04:08:35;10.20;88.30
49731;DHT22;35622;52.008;5.426;2024-03-23T04:11:01;10.10;88.60
49731;DHT22;35622;52.008;5.426;2024-03-23T04:13:26;10.00;88.30
49731;DHT22;35622;52.008;5.426;2024-03-23T04:15:55;9.90;88.70
49731;DHT22;35622;52.008;5.426;2024-03-23T04:18:21;9.90;88.80
49731;DHT22;35622;52.008;5.426;2024-03-23T04:20:48;9.80;88.10
49731;DHT22;35622;52.008;5.426;2024-03-23T04:23:14;9.70;88.40
49731;DHT22;35622;52.008;5.426;2024-03-23T04:25:40;9.70;88.40
49731;DHT22;35622;52.008;5.426;2024-03-23T04:28:05;9.70;88.60
49731;DHT22;35622;52.008;5.426;2024-03-23T04:30:31;9.60;88.70
49731;DHT22;35622;52.008;5.426;2024-03-23T04:32:57;9.60;88.50
49731;DHT22;35622;52.008;5.426;2024-03-23T04:35:26;9.50;88.70
49731;DHT22;35622;52.008;5.426;2024-03-23T04:37:53;9.40;88.70
49731;DHT22;35622;52.008;5.426;2024-03-23T04:40:19;9.50;88.30
49731;DHT22;35622;52.008;5.426;2024-03-23T04:42:45;9.30;88.30
49731;DHT22;35622;52.008;5.426;2024-03-23T04:45:11;9.30;88.50
49731;DHT22;35622;52.008;5.426;2024-03-23T04:47:37;9.20;88.70
49731;DHT22;35622;52.008;5.426;2024-03-23T04:50:04;9.20;88.70
49731;DHT22;35622;52.008;5.426;2024-03-23T04:52:30;9.20;88.70
49731;DHT22;35622;52.008;5.426;2024-03-23T04:54:56;9.10;88.70
49731;DHT22;35622;52.008;5.426;2024-03-23T04:57:22;9.10;88.60
49731;DHT22;35622;52.008;5.426;2024-03-23T04:59:48;9.00;88.30
49731;DHT22;35622;52.008;5.426;2024-03-23T05:02:14;9.00;88.60
49731;DHT22;35622;52.008;5.426;2024-03-23T05:04:40;8.90;88.30
49731;DHT22;35622;52.008;5.426;2024-03-23T05:07:06;8.90;88.40
49731;DHT22;35622;52.008;5.426;2024-03-23T05:09:32;8.90;88.40
49731;DHT22;35622;52.008;5.426;2024-03-23T05:11:59;8.80;88.30
49731;DHT22;35622;52.008;5.426;2024-03-23T05:14:25;8.70;88.40
49731;DHT22;35622;52.008;5.426;2024-03-23T05:16:52;8.70;88.30
49731;DHT22;35622;52.008;5.426;2024-03-23T05:19:17;8.70;88.30
49731;DHT22;35622;52.008;5.426;2024-03-23T05:21:43;8.60;88.20
49731;DHT22;35622;52.008;5.426;2024-03-23T05:24:09;8.60;88.30
49731;DHT22;35622;52.008;5.426;2024-03-23T05:26:35;8.60;88.40
49731;DHT22;35622;52.008;5.426;2024-03-23T05:29:01;8.60;88.40
49731;DHT22;35622;52.008;5.426;2024-03-23T05:31:28;8.50;88.30
49731;DHT22;35622;52.008;5.426;2024-03-23T05:33:54;8.50;88.70
49731;DHT22;35622;52.008;5.426;2024-03-23T05:36:20;8.50;88.20
49731;DHT22;35622;52.008;5.426;2024-03-23T05:38:46;8.40;88.10
49731;DHT22;35622;52.008;5.426;2024-03-23T05:41:12;8.40;88.80
49731;DHT22;35622;52.008;5.426;2024-03-23T05:43:37;8.30;89.40
49731;DHT22;35622;52.008;5.426;2024-03-23T05:46:03;8.40;89.50
49731;DHT22;35622;52.008;5.426;2024-03-23T05:48:33;8.40;89.80
49731;DHT22;35622;52.008;5.426;2024-03-23T05:50:59;8.40;89.90
49731;DHT22;35622;52.008;5.426;2024-03-23T05:53:24;8.40;90.00
49731;DHT22;35622;52.008;5.426;2024-03-23T05:56:00;8.40;90.10
49731;DHT22;35622;52.008;5.426;2024-03-23T05:58:29;8.50;90.30
49731;DHT22;35622;52.008;5.426;2024-03-23T06:00:59;8.50;90.60
49731;DHT22;35622;52.008;5.426;2024-03-23T06:03:26;8.50;90.70
49731;DHT22;35622;52.008;5.426;2024-03-23T06:05:52;8.60;90.90
49731;DHT22;35622;52.008;5.426;2024-03-23T06:08:21;8.70;90.90
49731;DHT22;35622;52.008;5.426;2024-03-23T06:10:46;8.80;91.20
49731;DHT22;35622;52.008;5.426;2024-03-23T06:13:12;8.80;90.70
49731;DHT22;35622;52.008;5.426;2024-03-23T06:15:38;8.90;90.70
49731;DHT22;35622;52.008;5.426;2024-03-23T06:18:04;9.00;90.60
49731;DHT22;35622;52.008;5.426;2024-03-23T06:20:30;9.00;90.70
49731;DHT22;35622;52.008;5.426;2024-03-23T06:22:56;9.10;90.70
49731;DHT22;35622;52.008;5.426;2024-03-23T06:25:22;9.20;90.40
49731;DHT22;35622;52.008;5.426;2024-03-23T06:27:47;9.20;90.40
49731;DHT22;35622;52.008;5.426;2024-03-23T06:30:13;9.20;90.60
49731;DHT22;35622;52.008;5.426;2024-03-23T06:32:39;9.20;90.40
49731;DHT22;35622;52.008;5.426;2024-03-23T06:35:04;9.20;90.50
49731;DHT22;35622;52.008;5.426;2024-03-23T06:37:34;9.30;90.50
49731;DHT22;35622;52.008;5.426;2024-03-23T06:40:00;9.40;90.90
49731;DHT22;35622;52.008;5.426;2024-03-23T06:42:25;9.70;91.40
49731;DHT22;35622;52.008;5.426;2024-03-23T06:44:51;10.30;91.50
49731;DHT22;35622;52.008;5.426;2024-03-23T06:47:16;10.90;91.00
49731;DHT22;35622;52.008;5.426;2024-03-23T06:49:42;11.70;88.50
49731;DHT22;35622;52.008;5.426;2024-03-23T06:52:08;12.30;85.30
49731;DHT22;35622;52.008;5.426;2024-03-23T06:54:33;13.00;84.00
49731;DHT22;35622;52.008;5.426;2024-03-23T06:56:59;13.60;81.00
49731;DHT22;35622;52.008;5.426;2024-03-23T06:59:24;14.20;78.60
49731;DHT22;35622;52.008;5.426;2024-03-23T07:01:50;14.90;77.50
49731;DHT22;35622;52.008;5.426;2024-03-23T07:04:16;15.60;74.80
49731;DHT22;35622;52.008;5.426;2024-03-23T07:06:45;15.70;72.10
49731;DHT22;35622;52.008;5.426;2024-03-23T07:09:11;15.70;72.70
49731;DHT22;35622;52.008;5.426;2024-03-23T07:11:37;16.00;72.00
49731;DHT22;35622;52.008;5.426;2024-03-23T07:14:02;16.30;70.70
49731;DHT22;35622;52.008;5.426;2024-03-23T07:16:28;16.50;70.30
49731;DHT22;35622;52.008;5.426;2024-03-23T07:18:54;16.90;69.40
49731;DHT22;35622;52.008;5.426;2024-03-23T07:21:19;17.00;68.80
49731;DHT22;35622;52.008;5.426;2024-03-23T07:23:45;16.70;68.70
49731;DHT22;35622;52.008;5.426;2024-03-23T07:26:11;16.30;70.10
49731;DHT22;35622;52.008;5.426;2024-03-23T07:28:37;16.30;72.30
49731;DHT22;35622;52.008;5.426;2024-03-23T07:31:04;16.40;71.50
49731;DHT22;35622;52.008;5.426;2024-03-23T07:33:30;16.40;71.20
49731;DHT22;35622;52.008;5.426;2024-03-23T07:35:56;16.50;71.90
49731;DHT22;35622;52.008;5.426;2024-03-23T07:38:22;17.10;71.50
49731;DHT22;35622;52.008;5.426;2024-03-23T07:40:47;17.70;69.70
49731;DHT22;35622;52.008;5.426;2024-03-23T07:43:19;17.90;65.10
49731;DHT22;35622;52.008;5.426;2024-03-23T07:45:51;18.60;66.60
49731;DHT22;35622;52.008;5.426;2024-03-23T07:48:18;19.20;63.10
49731;DHT22;35622;52.008;5.426;2024-03-23T07:50:43;19.50;63.20
49731;DHT22;35622;52.008;5.426;2024-03-23T07:53:09;19.70;59.10
49731;DHT22;35622;52.008;5.426;2024-03-23T07:55:34;19.90;60.20
49731;DHT22;35622;52.008;5.426;2024-03-23T07:58:00;20.30;61.00
49731;DHT22;35622;52.008;5.426;2024-03-23T08:00:26;19.60;57.40
49731;DHT22;35622;52.008;5.426;2024-03-23T08:02:51;18.80;61.50
49731;DHT22;35622;52.008;5.426;2024-03-23T08:05:17;18.40;62.70
49731;DHT22;35622;52.008;5.426;2024-03-23T08:07:42;17.30;63.00
49731;DHT22;35622;52.008;5.426;2024-03-23T08:10:08;16.60;64.10
49731;DHT22;35622;52.008;5.426;2024-03-23T08:12:34;15.30;65.70
49731;DHT22;35622;52.008;5.426;2024-03-23T08:14:59;14.60;70.00
49731;DHT22;35622;52.008;5.426;2024-03-23T08:17:25;13.90;71.70
49731;DHT22;35622;52.008;5.426;2024-03-23T08:19:50;13.80;76.60
49731;DHT22;35622;52.008;5.426;2024-03-23T08:22:17;13.80;76.20
49731;DHT22;35622;52.008;5.426;2024-03-23T08:24:43;13.60;77.10
49731;DHT22;35622;52.008;5.426;2024-03-23T08:27:09;13.30;78.10
49731;DHT22;35622;52.008;5.426;2024-03-23T08:29:34;12.90;79.00
49731;DHT22;35622;52.008;5.426;2024-03-23T08:32:00;12.60;80.80
49731;DHT22;35622;52.008;5.426;2024-03-23T08:34:26;12.50;81.60
49731;DHT22;35622;52.008;5.426;2024-03-23T08:36:51;12.30;81.30
49731;DHT22;35622;52.008;5.426;2024-03-23T08:39:17;12.20;82.00
49731;DHT22;35622;52.008;5.426;2024-03-23T08:41:43;11.80;82.30
49731;DHT22;35622;52.008;5.426;2024-03-23T08:44:11;11.50;81.10
49731;DHT22;35622;52.008;5.426;2024-03-23T08:46:37;11.40;83.70
49731;DHT22;35622;52.008;5.426;2024-03-23T08:49:02;11.40;85.60
49731;DHT22;35622;52.008;5.426;2024-03-23T08:51:28;11.30;85.10
49731;DHT22;35622;52.008;5.426;2024-03-23T08:53:53;11.40;83.20
49731;DHT22;35622;52.008;5.426;2024-03-23T08:56:19;11.70;85.90
49731;DHT22;35622;52.008;5.426;2024-03-23T08:58:45;12.20;88.60
49731;DHT22;35622;52.008;5.426;2024-03-23T09:01:12;13.40;88.30
49731;DHT22;35622;52.008;5.426;2024-03-23T09:03:41;14.70;83.10
49731;DHT22;35622;52.008;5.426;2024-03-23T09:06:16;15.80;74.80
49731;DHT22;35622;52.008;5.426;2024-03-23T09:08:42;16.80;68.50
49731;DHT22;35622;52.008;5.426;2024-03-23T09:11:12;17.60;67.60
49731;DHT22;35622;52.008;5.426;2024-03-23T09:13:39;18.20;61.80
49731;DHT22;35622;52.008;5.426;2024-03-23T09:16:06;19.00;63.70
49731;DHT22;35622;52.008;5.426;2024-03-23T09:18:33;19.50;59.30
49731;DHT22;35622;52.008;5.426;2024-03-23T09:20:59;19.90;55.80
49731;DHT22;35622;52.008;5.426;2024-03-23T09:23:24;19.80;54.60
49731;DHT22;35622;52.008;5.426;2024-03-23T09:25:50;19.10;56.80
49731;DHT22;35622;52.008;5.426;2024-03-23T09:28:15;19.30;56.60
49731;DHT22;35622;52.008;5.426;2024-03-23T09:30:41;18.90;55.50
49731;DHT22;35622;52.008;5.426;2024-03-23T09:33:10;18.10;55.20
49731;DHT22;35622;52.008;5.426;2024-03-23T09:35:43;17.30;58.10
49731;DHT22;35622;52.008;5.426;2024-03-23T09:38:10;16.10;59.70
49731;DHT22;35622;52.008;5.426;2024-03-23T09:40:42;15.60;63.90
49731;DHT22;35622;52.008;5.426;2024-03-23T09:43:09;15.10;67.90
49731;DHT22;35622;52.008;5.426;2024-03-23T09:45:39;14.80;71.20
49731;DHT22;35622;52.008;5.426;2024-03-23T09:48:08;15.00;70.80
49731;DHT22;35622;52.008;5.426;2024-03-23T09:50:35;15.40;71.80
49731;DHT22;35622;52.008;5.426;2024-03-23T09:53:01;16.00;72.60
49731;DHT22;35622;52.008;5.426;2024-03-23T09:55:27;16.80;70.00
49731;DHT22;35622;52.008;5.426;2024-03-23T09:57:52;17.20;65.50
49731;DHT22;35622;52.008;5.426;2024-03-23T10:00:18;16.90;62.40
49731;DHT22;35622;52.008;5.426;2024-03-23T10:02:45;16.80;63.60
49731;DHT22;35622;52.008;5.426;2024-03-23T10:05:23;16.10;59.40
49731;DHT22;35622;52.008;5.426;2024-03-23T10:07:51;15.00;67.50
49731;DHT22;35622;52.008;5.426;2024-03-23T10:10:17;15.10;69.10
49731;DHT22;35622;52.008;5.426;2024-03-23T10:12:48;15.80;72.60
49731;DHT22;35622;52.008;5.426;2024-03-23T10:15:25;16.40;64.50
49731;DHT22;35622;52.008;5.426;2024-03-23T10:17:51;16.60;63.70
49731;DHT22;35622;52.008;5.426;2024-03-23T10:20:21;16.70;61.70
49731;DHT22;35622;52.008;5.426;2024-03-23T10:22:50;16.20;61.40
49731;DHT22;35622;52.008;5.426;2024-03-23T10:25:24;15.90;62.30
49731;DHT22;35622;52.008;5.426;2024-03-23T10:28:00;15.10;61.10
49731;DHT22;35622;52.008;5.426;2024-03-23T10:30:29;14.00;63.90
49731;DHT22;35622;52.008;5.426;2024-03-23T10:33:11;13.50;66.00
49731;DHT22;35622;52.008;5.426;2024-03-23T10:35:37;13.40;67.20
49731;DHT22;35622;52.008;5.426;2024-03-23T10:38:07;13.60;67.70
49731;DHT22;35622;52.008;5.426;2024-03-23T10:40:36;14.00;68.20
49731;DHT22;35622;52.008;5.426;2024-03-23T10:43:06;14.60;68.90
49731;DHT22;35622;52.008;5.426;2024-03-23T10:45:33;15.30;66.20
49731;DHT22;35622;52.008;5.426;2024-03-23T10:47:59;15.50;66.70
49731;DHT22;35622;52.008;5.426;2024-03-23T10:50:25;16.10;62.30
49731;DHT22;35622;52.008;5.426;2024-03-23T10:52:52;16.20;60.80
49731;DHT22;35622;52.008;5.426;2024-03-23T10:55:19;15.70;57.90
49731;DHT22;35622;52.008;5.426;2024-03-23T10:57:50;14.40;63.70
49731;DHT22;35622;52.008;5.426;2024-03-23T11:00:17;13.90;69.80
49731;DHT22;35622;52.008;5.426;2024-03-23T11:02:43;13.50;73.90
49731;DHT22;35622;52.008;5.426;2024-03-23T11:07:53;13.50;76.30
49731;DHT22;35622;52.008;5.426;2024-03-23T11:10:29;13.60;75.80
49731;DHT22;35622;52.008;5.426;2024-03-23T11:15:43;14.40;73.70
49731;DHT22;35622;52.008;5.426;2024-03-23T11:18:08;14.30;72.40
49731;DHT22;35622;52.008;5.426;2024-03-23T11:20:38;13.80;70.40
49731;DHT22;35622;52.008;5.426;2024-03-23T11:23:04;13.50;74.90
49731;DHT22;35622;52.008;5.426;2024-03-23T11:25:29;13.50;77.00
49731;DHT22;35622;52.008;5.426;2024-03-23T11:27:57;13.10;76.20
49731;DHT22;35622;52.008;5.426;2024-03-23T11:30:26;12.60;77.70
49731;DHT22;35622;52.008;5.426;2024-03-23T11:32:57;12.50;80.10
49731;DHT22;35622;52.008;5.426;2024-03-23T11:40:28;12.20;78.50
49731;DHT22;35622;52.008;5.426;2024-03-23T11:43:05;12.30;81.60
49731;DHT22;35622;52.008;5.426;2024-03-23T11:45:47;12.20;78.30
49731;DHT22;35622;52.008;5.426;2024-03-23T11:48:17;12.50;84.60
49731;DHT22;35622;52.008;5.426;2024-03-23T11:50:45;13.00;84.30
49731;DHT22;35622;52.008;5.426;2024-03-23T11:53:24;13.50;80.80
49731;DHT22;35622;52.008;5.426;2024-03-23T11:55:56;14.00;80.00
49731;DHT22;35622;52.008;5.426;2024-03-23T11:58:24;14.30;69.80
49731;DHT22;35622;52.008;5.426;2024-03-23T12:01:10;14.20;72.70
49731;DHT22;35622;52.008;5.426;2024-03-23T12:03:36;14.30;73.10
49731;DHT22;35622;52.008;5.426;2024-03-23T12:06:03;14.30;68.10
49731;DHT22;35622;52.008;5.426;2024-03-23T12:08:32;14.60;66.80
49731;DHT22;35622;52.008;5.426;2024-03-23T12:11:09;14.60;65.10
49731;DHT22;35622;52.008;5.426;2024-03-23T12:13:37;13.90;63.00
49731;DHT22;35622;52.008;5.426;2024-03-23T12:16:29;13.90;64.70
49731;DHT22;35622;52.008;5.426;2024-03-23T12:19:05;13.70;65.40
49731;DHT22;35622;52.008;5.426;2024-03-23T12:21:31;13.40;64.70
49731;DHT22;35622;52.008;5.426;2024-03-23T12:23:56;13.30;66.60
49731;DHT22;35622;52.008;5.426;2024-03-23T12:26:22;12.80;67.30
49731;DHT22;35622;52.008;5.426;2024-03-23T12:28:48;12.60;65.80
49731;DHT22;35622;52.008;5.426;2024-03-23T12:31:14;12.40;67.60
49731;DHT22;35622;52.008;5.426;2024-03-23T12:33:39;12.60;70.80
49731;DHT22;35622;52.008;5.426;2024-03-23T12:36:05;12.70;67.50
49731;DHT22;35622;52.008;5.426;2024-03-23T12:38:31;13.10;66.90
49731;DHT22;35622;52.008;5.426;2024-03-23T12:40:56;13.10;65.00
49731;DHT22;35622;52.008;5.426;2024-03-23T12:43:22;12.70;65.00
49731;DHT22;35622;52.008;5.426;2024-03-23T12:45:48;12.50;67.00
49731;DHT22;35622;52.008;5.426;2024-03-23T12:48:14;12.40;64.50
49731;DHT22;35622;52.008;5.426;2024-03-23T12:50:40;12.30;65.60
49731;DHT22;35622;52.008;5.426;2024-03-23T12:53:05;12.20;69.20
49731;DHT22;35622;52.008;5.426;2024-03-23T12:55:31;12.40;69.60
49731;DHT22;35622;52.008;5.426;2024-03-23T12:57:56;12.50;68.40
49731;DHT22;35622;52.008;5.426;2024-03-23T13:00:22;12.80;69.30
49731;DHT22;35622;52.008;5.426;2024-03-23T13:02:48;13.20;71.70
49731;DHT22;35622;52.008;5.426;2024-03-23T13:05:13;13.50;70.40
49731;DHT22;35622;52.008;5.426;2024-03-23T13:07:39;14.00;66.50
49731;DHT22;35622;52.008;5.426;2024-03-23T13:10:05;14.40;66.70
49731;DHT22;35622;52.008;5.426;2024-03-23T13:12:32;14.50;66.90
49731;DHT22;35622;52.008;5.426;2024-03-23T13:15:01;14.40;65.80
49731;DHT22;35622;52.008;5.426;2024-03-23T13:17:27;14.00;62.00
49731;DHT22;35622;52.008;5.426;2024-03-23T13:19:54;13.90;62.60
49731;DHT22;35622;52.008;5.426;2024-03-23T13:22:20;14.00;60.50
49731;DHT22;35622;52.008;5.426;2024-03-23T13:24:46;13.50;63.30
49731;DHT22;35622;52.008;5.426;2024-03-23T13:27:11;13.10;65.80
49731;DHT22;35622;52.008;5.426;2024-03-23T13:29:37;13.10;66.20
49731;DHT22;35622;52.008;5.426;2024-03-23T13:32:03;12.90;65.40
49731;DHT22;35622;52.008;5.426;2024-03-23T13:34:29;12.50;66.50
49731;DHT22;35622;52.008;5.426;2024-03-23T13:36:55;12.20;69.50
49731;DHT22;35622;52.008;5.426;2024-03-23T13:39:23;11.90;70.40
49731;DHT22;35622;52.008;5.426;2024-03-23T13:41:49;11.60;68.60
49731;DHT22;35622;52.008;5.426;2024-03-23T13:44:15;11.60;71.00
49731;DHT22;35622;52.008;5.426;2024-03-23T13:46:42;11.80;70.70
49731;DHT22;35622;52.008;5.426;2024-03-23T13:49:26;12.20;71.60
49731;DHT22;35622;52.008;5.426;2024-03-23T13:51:53;12.40;71.10
49731;DHT22;35622;52.008;5.426;2024-03-23T13:54:18;12.40;69.20
49731;DHT22;35622;52.008;5.426;2024-03-23T13:56:44;12.30;68.80
49731;DHT22;35622;52.008;5.426;2024-03-23T13:59:10;12.40;67.50
49731;DHT22;35622;52.008;5.426;2024-03-23T14:01:36;12.20;65.20
49731;DHT22;35622;52.008;5.426;2024-03-23T14:04:01;11.80;68.00
49731;DHT22;35622;52.008;5.426;2024-03-23T14:06:27;11.60;69.70
49731;DHT22;35622;52.008;5.426;2024-03-23T14:08:52;11.60;71.00
49731;DHT22;35622;52.008;5.426;2024-03-23T14:11:18;11.50;70.20
49731;DHT22;35622;52.008;5.426;2024-03-23T14:13:44;11.90;70.80
49731;DHT22;35622;52.008;5.426;2024-03-23T14:16:10;12.40;68.80
49731;DHT22;35622;52.008;5.426;2024-03-23T14:18:36;12.60;69.50
49731;DHT22;35622;52.008;5.426;2024-03-23T14:21:01;12.70;67.20
49731;DHT22;35622;52.008;5.426;2024-03-23T14:23:30;12.80;68.50
49731;DHT22;35622;52.008;5.426;2024-03-23T14:25:59;12.70;69.00
49731;DHT22;35622;52.008;5.426;2024-03-23T14:28:25;12.60;67.20
49731;DHT22;35622;52.008;5.426;2024-03-23T14:30:51;12.70;66.60
49731;DHT22;35622;52.008;5.426;2024-03-23T14:33:18;13.00;69.70
49731;DHT22;35622;52.008;5.426;2024-03-23T14:35:51;13.10;68.00
49731;DHT22;35622;52.008;5.426;2024-03-23T14:38:17;13.10;62.50
49731;DHT22;35622;52.008;5.426;2024-03-23T14:40:43;13.00;61.50
49731;DHT22;35622;52.008;5.426;2024-03-23T14:43:08;12.80;63.70
49731;DHT22;35622;52.008;5.426;2024-03-23T14:45:34;12.80;66.50
49731;DHT22;35622;52.008;5.426;2024-03-23T14:47:59;13.10;64.50
49731;DHT22;35622;52.008;5.426;2024-03-23T14:50:26;13.20;65.10
49731;DHT22;35622;52.008;5.426;2024-03-23T14:52:51;13.30;63.70
49731;DHT22;35622;52.008;5.426;2024-03-23T14:55:17;13.50;64.60
49731;DHT22;35622;52.008;5.426;2024-03-23T14:57:43;13.60;64.20
49731;DHT22;35622;52.008;5.426;2024-03-23T15:00:09;13.60;63.20
49731;DHT22;35622;52.008;5.426;2024-03-23T15:02:38;13.80;64.50
49731;DHT22;35622;52.008;5.426;2024-03-23T15:05:05;13.80;64.90
49731;DHT22;35622;52.008;5.426;2024-03-23T15:07:32;13.40;63.60
49731;DHT22;35622;52.008;5.426;2024-03-23T15:09:58;13.20;64.10
49731;DHT22;35622;52.008;5.426;2024-03-23T15:12:24;13.00;63.20
49731;DHT22;35622;52.008;5.426;2024-03-23T15:14:49;12.60;62.00
49731;DHT22;35622;52.008;5.426;2024-03-23T15:17:15;12.40;66.00
49731;DHT22;35622;52.008;5.426;2024-03-23T15:19:40;12.50;64.90
49731;DHT22;35622;52.008;5.426;2024-03-23T15:22:08;12.90;62.90
49731;DHT22;35622;52.008;5.426;2024-03-23T15:24:34;13.00;65.60
49731;DHT22;35622;52.008;5.426;2024-03-23T15:27:01;12.90;65.20
49731;DHT22;35622;52.008;5.426;2024-03-23T15:29:27;12.70;64.80
49731;DHT22;35622;52.008;5.426;2024-03-23T15:31:52;12.50;64.70
49731;DHT22;35622;52.008;5.426;2024-03-23T15:34:19;12.50;66.20
49731;DHT22;35622;52.008;5.426;2024-03-23T15:36:50;12.40;65.30
49731;DHT22;35622;52.008;5.426;2024-03-23T15:39:19;12.20;67.70
49731;DHT22;35622;52.008;5.426;2024-03-23T15:41:48;12.00;68.90
49731;DHT22;35622;52.008;5.426;2024-03-23T15:44:14;12.00;70.50
49731;DHT22;35622;52.008;5.426;2024-03-23T15:46:39;11.90;70.50
49731;DHT22;35622;52.008;5.426;2024-03-23T15:49:05;12.00;71.00
49731;DHT22;35622;52.008;5.426;2024-03-23T15:51:31;12.00;69.90
49731;DHT22;35622;52.008;5.426;2024-03-23T15:54:02;12.20;72.00
49731;DHT22;35622;52.008;5.426;2024-03-23T15:56:31;12.20;71.50
49731;DHT22;35622;52.008;5.426;2024-03-23T15:58:57;12.20;70.10
49731;DHT22;35622;52.008;5.426;2024-03-23T16:01:30;12.00;71.50
49731;DHT22;35622;52.008;5.426;2024-03-23T16:03:58;11.90;73.20
49731;DHT22;35622;52.008;5.426;2024-03-23T16:06:24;11.80;73.20
49731;DHT22;35622;52.008;5.426;2024-03-23T16:08:50;11.70;74.30
49731;DHT22;35622;52.008;5.426;2024-03-23T16:11:15;11.90;76.20
49731;DHT22;35622;52.008;5.426;2024-03-23T16:13:41;11.90;75.70
49731;DHT22;35622;52.008;5.426;2024-03-23T16:16:08;12.00;76.00
49731;DHT22;35622;52.008;5.426;2024-03-23T16:18:36;11.90;76.00
49731;DHT22;35622;52.008;5.426;2024-03-23T16:21:04;12.10;74.80
49731;DHT22;35622;52.008;5.426;2024-03-23T16:23:33;12.10;74.60
49731;DHT22;35622;52.008;5.426;2024-03-23T16:25:59;12.10;76.00
49731;DHT22;35622;52.008;5.426;2024-03-23T16:28:36;12.10;74.80
49731;DHT22;35622;52.008;5.426;2024-03-23T16:31:12;11.90;74.10
49731;DHT22;35622;52.008;5.426;2024-03-23T16:33:38;11.80;72.40
49731;DHT22;35622;52.008;5.426;2024-03-23T16:38:33;11.60;72.50